createdAt,value
2019-06-01T01:57:51.150Z,89.10
2019-06-01T02:01:21.431Z,89.00
2019-06-01T02:03:39.398Z,89.00
2019-06-01T02:06:10.539Z,89.00
2019-06-01T02:08:42.851Z,89.10
2019-06-01T02:11:14.347Z,89.20
2019-06-01T02:13:46.631Z,89.20
2019-06-01T02:16:15.964Z,89.20
2019-06-01T02:18:48.648Z,89.20
2019-06-01T02:21:18.539Z,89.30
2019-06-01T02:23:50.779Z,89.20
2019-06-01T02:26:21.881Z,89.20
2019-06-01T02:28:53.214Z,89.20
2019-06-01T02:31:40.582Z,89.20
2019-06-01T02:34:01.551Z,89.20
2019-06-01T02:36:33.313Z,89.30
2019-06-01T02:39:05.283Z,89.90
2019-06-01T02:41:38.047Z,89.60
2019-06-01T02:44:09.342Z,89.30
2019-06-01T02:46:40.433Z,89.40
2019-06-01T02:49:15.602Z,89.40
2019-06-01T02:51:48.909Z,89.40
2019-06-01T02:54:19.397Z,89.50
2019-06-01T02:56:49.399Z,89.80
2019-06-01T02:59:22.231Z,89.80
2019-06-01T03:01:57.132Z,89.70
2019-06-01T03:04:26.763Z,89.80
2019-06-01T03:06:59.591Z,90.10
2019-06-01T03:09:31.327Z,90.00
2019-06-01T03:12:08.234Z,90.10
2019-06-01T03:14:40.321Z,90.20
2019-06-01T03:17:18.831Z,90.30
2019-06-01T03:19:51.625Z,90.10
2019-06-01T03:22:25.935Z,90.20
2019-06-01T03:25:04.209Z,90.70
2019-06-01T03:30:15.599Z,90.60
2019-06-01T03:32:47.960Z,91.00
2019-06-01T03:35:21.809Z,91.00
2019-06-01T03:37:52.788Z,90.60
2019-06-01T03:40:24.185Z,90.40
2019-06-01T03:42:57.541Z,90.40
2019-06-01T03:45:28.814Z,90.30
2019-06-01T03:48:00.408Z,90.20
2019-06-01T03:50:31.472Z,90.10
2019-06-01T03:53:09.945Z,90.00
2019-06-01T03:55:39.982Z,90.10
2019-06-01T03:58:11.220Z,90.40
2019-06-01T04:00:43.555Z,90.00
2019-06-01T04:03:17.810Z,90.00
2019-06-01T04:05:49.583Z,89.60
2019-06-01T04:08:20.159Z,89.70
2019-06-01T04:10:52.311Z,89.20
2019-06-01T04:13:24.902Z,88.50
2019-06-01T04:15:54.647Z,88.40
2019-06-01T04:18:24.646Z,88.80
2019-06-01T04:20:58.985Z,89.10
2019-06-01T04:23:28.856Z,89.40
2019-06-01T04:26:04.155Z,89.80
2019-06-01T04:28:36.286Z,89.60
2019-06-01T04:31:06.524Z,89.70
2019-06-01T04:33:37.785Z,89.00
2019-06-01T04:36:09.051Z,88.90
2019-06-01T04:38:40.701Z,88.40
2019-06-01T04:41:12.107Z,88.20
2019-06-01T04:43:44.548Z,87.60
2019-06-01T04:46:15.634Z,86.70
2019-06-01T04:48:46.760Z,86.60
2019-06-01T04:51:18.083Z,86.40
2019-06-01T04:53:51.339Z,86.30
2019-06-01T04:56:23.507Z,85.60
2019-06-01T04:58:54.583Z,85.70
2019-06-01T05:01:25.680Z,84.80
2019-06-01T05:03:56.843Z,84.40
2019-06-01T05:06:31.642Z,84.00
2019-06-01T05:09:05.713Z,84.00
2019-06-01T05:11:35.945Z,82.80
2019-06-01T05:14:09.729Z,82.50
2019-06-01T05:16:42.542Z,81.00
2019-06-01T05:19:14.323Z,80.60
2019-06-01T05:21:44.205Z,79.70
2019-06-01T05:24:17.139Z,79.60
2019-06-01T05:26:46.677Z,78.90
2019-06-01T05:29:19.725Z,79.60
2019-06-01T05:31:51.096Z,78.90
2019-06-01T05:34:25.149Z,78.50
2019-06-01T05:36:54.251Z,78.80
2019-06-01T05:39:24.709Z,78.00
2019-06-01T05:41:55.868Z,77.90
2019-06-01T05:44:26.895Z,77.00
2019-06-01T05:46:59.135Z,76.50
2019-06-01T05:49:30.153Z,75.40
2019-06-01T05:52:06.407Z,76.20
2019-06-01T05:54:38.570Z,75.50
2019-06-01T05:57:08.458Z,75.70
2019-06-01T05:59:41.628Z,76.10
2019-06-01T06:02:13.227Z,75.30
2019-06-01T06:04:45.936Z,74.80
2019-06-01T06:07:19.030Z,74.30
2019-06-01T06:09:51.488Z,74.00
2019-06-01T06:12:23.540Z,73.60
2019-06-01T06:14:56.596Z,73.30
2019-06-01T06:17:27.986Z,72.40
2019-06-01T06:19:57.832Z,71.70
2019-06-01T06:22:30.315Z,71.70
2019-06-01T06:25:02.710Z,72.30
2019-06-01T06:27:37.182Z,71.90
2019-06-01T06:30:12.722Z,71.00
2019-06-01T06:32:44.999Z,71.50
2019-06-01T06:35:17.428Z,71.10
2019-06-01T06:37:52.292Z,70.60
2019-06-01T06:40:24.286Z,70.60
2019-06-01T06:42:53.240Z,70.30
2019-06-01T06:45:25.002Z,70.30
2019-06-01T06:47:55.104Z,69.50
2019-06-01T06:50:27.472Z,70.90
2019-06-01T06:53:00.066Z,70.10
2019-06-01T06:55:32.900Z,69.80
2019-06-01T06:58:03.955Z,68.70
2019-06-01T07:00:36.125Z,69.10
2019-06-01T07:05:45.347Z,68.10
2019-06-01T07:08:17.581Z,68.50
2019-06-01T07:10:49.005Z,67.30
2019-06-01T07:13:21.579Z,69.00
2019-06-01T07:15:56.276Z,67.70
2019-06-01T07:18:30.185Z,67.10
2019-06-01T07:21:05.374Z,67.80
2019-06-01T07:23:39.585Z,67.80
2019-06-01T07:26:12.599Z,66.30
2019-06-01T07:28:44.672Z,66.10
2019-06-01T07:31:14.751Z,65.60
2019-06-01T07:33:47.822Z,64.90
2019-06-01T07:36:20.655Z,65.20
2019-06-01T07:38:53.132Z,64.60
2019-06-01T07:41:26.757Z,65.00
2019-06-01T07:43:56.567Z,65.50
2019-06-01T07:49:18.432Z,65.30
2019-06-01T07:51:49.807Z,65.50
2019-06-01T07:54:22.252Z,64.50
2019-06-01T07:56:53.572Z,64.60
2019-06-01T07:59:26.237Z,64.20
2019-06-01T08:01:59.502Z,65.10
2019-06-01T08:04:31.790Z,64.50
2019-06-01T08:07:03.352Z,64.70
2019-06-01T08:09:37.626Z,64.70
2019-06-01T08:12:08.698Z,64.40
2019-06-01T08:14:43.453Z,63.50
2019-06-01T08:17:13.502Z,63.00
2019-06-01T08:19:46.324Z,62.80
2019-06-01T08:22:20.225Z,62.60
2019-06-01T08:24:50.250Z,61.80
2019-06-01T08:27:22.359Z,62.90
2019-06-01T08:29:55.310Z,63.00
2019-06-01T08:32:26.649Z,63.10
2019-06-01T08:35:08.098Z,62.50
2019-06-01T08:37:31.428Z,61.00
2019-06-01T08:40:02.827Z,60.80
2019-06-01T08:42:34.551Z,59.70
2019-06-01T08:45:07.490Z,61.30
2019-06-01T08:47:38.647Z,61.60
2019-06-01T08:50:08.792Z,60.60
2019-06-01T08:52:43.209Z,60.30
2019-06-01T08:55:16.201Z,59.70
2019-06-01T08:57:50.318Z,59.90
2019-06-01T09:00:26.238Z,58.40
2019-06-01T09:02:56.621Z,58.20
2019-06-01T09:05:35.083Z,58.50
2019-06-01T09:08:06.961Z,59.50
2019-06-01T09:10:39.379Z,59.20
2019-06-01T09:13:14.099Z,58.50
2019-06-01T09:15:45.519Z,59.00
2019-06-01T09:18:15.484Z,58.60
2019-06-01T09:20:48.936Z,59.80
2019-06-01T09:23:21.585Z,58.20
2019-06-01T09:28:32.067Z,59.00
2019-06-01T09:31:03.701Z,57.80
2019-06-01T09:33:36.886Z,58.60
2019-06-01T09:36:11.046Z,58.40
2019-06-01T09:38:47.280Z,58.60
2019-06-01T09:41:21.558Z,58.20
2019-06-01T09:43:52.514Z,57.60
2019-06-01T09:46:23.971Z,56.30
2019-06-01T09:48:53.930Z,57.20
2019-06-01T09:51:24.739Z,58.60
2019-06-01T09:56:35.503Z,56.70
2019-06-01T09:59:07.974Z,55.30
2019-06-01T10:01:39.004Z,56.00
2019-06-01T10:04:13.954Z,57.20
2019-06-01T10:06:45.371Z,57.60
2019-06-01T10:09:17.716Z,56.10
2019-06-01T10:11:50.186Z,57.10
2019-06-01T10:14:20.305Z,56.20
2019-06-01T10:16:51.324Z,57.50
2019-06-01T10:19:22.425Z,57.10
2019-06-01T10:21:53.661Z,55.80
2019-06-01T10:24:24.208Z,55.60
2019-06-01T10:26:55.111Z,55.50
2019-06-01T10:29:30.535Z,56.40
2019-06-01T10:32:01.529Z,56.00
2019-06-01T10:34:39.883Z,55.60
2019-06-01T10:37:13.096Z,55.20
2019-06-01T10:39:44.366Z,54.20
2019-06-01T10:42:17.827Z,53.90
2019-06-01T10:44:49.137Z,53.30
2019-06-01T10:47:23.640Z,52.90
2019-06-01T10:49:56.084Z,54.80
2019-06-01T10:52:27.224Z,54.40
2019-06-01T10:54:59.816Z,53.70
2019-06-01T10:57:32.328Z,53.40
2019-06-01T11:00:03.312Z,54.40
2019-06-01T11:02:36.639Z,54.20
2019-06-01T11:05:13.737Z,54.00
2019-06-01T11:07:43.270Z,54.50
2019-06-01T11:10:12.918Z,55.10
2019-06-01T11:12:45.762Z,53.80
2019-06-01T11:15:17.506Z,55.40
2019-06-01T11:17:51.288Z,55.40
2019-06-01T11:20:24.144Z,54.20
2019-06-01T11:22:58.203Z,51.30
2019-06-01T11:25:30.577Z,53.30
2019-06-01T11:28:00.464Z,53.30
2019-06-01T11:30:30.403Z,52.70
2019-06-01T11:33:03.659Z,53.20
2019-06-01T11:35:39.206Z,53.70
2019-06-01T11:38:10.788Z,54.60
2019-06-01T11:40:43.083Z,54.50
2019-06-01T11:43:13.937Z,55.10
2019-06-01T11:45:43.386Z,55.50
2019-06-01T11:48:15.762Z,55.50
2019-06-01T11:50:49.510Z,56.80
2019-06-01T11:53:19.290Z,56.10
2019-06-01T11:55:52.150Z,55.80
2019-06-01T11:58:23.240Z,55.50
2019-06-01T12:00:53.269Z,55.40
2019-06-01T12:03:25.331Z,55.70
2019-06-01T12:05:56.321Z,56.20
2019-06-01T12:08:27.087Z,56.40
2019-06-01T12:11:01.491Z,58.00
2019-06-01T12:13:37.955Z,57.10
2019-06-01T12:16:10.168Z,56.90
2019-06-01T12:18:41.046Z,58.20
2019-06-01T12:21:14.370Z,58.10
2019-06-01T12:23:45.660Z,58.30
2019-06-01T12:26:18.064Z,58.60
2019-06-01T12:28:49.241Z,59.70
2019-06-01T12:31:21.789Z,60.30
2019-06-01T12:33:54.197Z,60.40
2019-06-01T12:36:26.484Z,60.90
2019-06-01T12:38:57.606Z,60.10
2019-06-01T12:41:27.695Z,60.00
2019-06-01T12:44:10.440Z,60.30
2019-06-01T12:46:44.809Z,60.90
2019-06-01T12:49:16.215Z,61.00
2019-06-01T12:51:48.802Z,61.10
2019-06-01T12:54:20.208Z,60.70
2019-06-01T12:56:53.085Z,61.70
2019-06-01T12:59:25.759Z,62.60
2019-06-01T13:01:57.956Z,62.40
2019-06-01T13:04:28.473Z,62.40
2019-06-01T13:07:01.092Z,62.60
2019-06-01T13:09:31.353Z,62.80
2019-06-01T13:12:04.109Z,63.10
2019-06-01T13:14:35.479Z,63.10
2019-06-01T13:17:07.733Z,62.30
2019-06-01T13:19:41.233Z,61.80
2019-06-01T13:22:12.525Z,62.40
2019-06-01T13:24:45.755Z,61.50
2019-06-01T13:27:18.766Z,62.00
2019-06-01T13:29:50.160Z,61.90
2019-06-01T13:32:21.599Z,61.60
2019-06-01T13:34:54.986Z,60.80
2019-06-01T13:37:26.127Z,61.60
2019-06-01T13:40:00.635Z,61.80
2019-06-01T13:42:34.621Z,61.80
2019-06-01T13:45:08.648Z,61.00
2019-06-01T13:47:40.917Z,61.40
2019-06-01T13:50:12.739Z,61.60
2019-06-01T13:52:43.905Z,61.70
2019-06-01T13:55:17.931Z,62.00
2019-06-01T13:57:48.333Z,61.20
2019-06-01T14:00:29.671Z,60.30
2019-06-01T14:02:57.247Z,60.50
2019-06-01T14:05:29.254Z,61.00
2019-06-01T14:08:02.635Z,61.30
2019-06-01T14:10:32.582Z,61.20
2019-06-01T14:13:05.349Z,61.40
2019-06-01T14:15:37.868Z,62.00
2019-06-01T14:18:08.451Z,62.10
2019-06-01T14:20:41.645Z,62.10
2019-06-01T14:23:12.484Z,62.10
2019-06-01T14:25:45.870Z,61.50
2019-06-01T14:28:20.627Z,60.80
2019-06-01T14:30:52.281Z,61.40
2019-06-01T14:33:24.906Z,59.50
2019-06-01T14:36:08.993Z,59.90
2019-06-01T14:41:10.737Z,59.10
2019-06-01T14:43:40.931Z,59.20
2019-06-01T14:46:12.049Z,59.30
2019-06-01T14:48:43.395Z,58.90
2019-06-01T14:51:14.344Z,58.50
2019-06-01T14:53:44.334Z,59.90
2019-06-01T14:56:15.766Z,59.90
2019-06-01T14:58:49.806Z,59.70
2019-06-01T15:01:32.390Z,59.90
2019-06-01T15:04:01.276Z,59.40
2019-06-01T15:06:31.116Z,59.30
2019-06-01T15:09:18.057Z,60.80
2019-06-01T15:11:36.284Z,60.50
2019-06-01T15:14:08.237Z,60.10
2019-06-01T15:16:41.107Z,60.50
2019-06-01T15:19:17.022Z,59.90
2019-06-01T15:21:49.956Z,60.90
2019-06-01T15:24:22.992Z,61.60
2019-06-01T15:27:00.793Z,61.90
2019-06-01T15:29:33.236Z,61.30
2019-06-01T15:32:04.929Z,61.60
2019-06-01T15:34:36.553Z,60.90
2019-06-01T15:37:08.791Z,62.60
2019-06-01T15:39:44.569Z,62.00
2019-06-01T15:42:19.075Z,62.70
2019-06-01T15:44:51.451Z,63.40
2019-06-01T15:47:22.775Z,63.30
2019-06-01T15:49:58.043Z,62.70
2019-06-01T15:52:29.236Z,63.00
2019-06-01T15:55:02.871Z,62.90
2019-06-01T15:57:34.455Z,62.90
2019-06-01T16:00:09.848Z,62.60
2019-06-01T16:02:40.897Z,62.20
2019-06-01T16:05:12.072Z,62.10
2019-06-01T16:07:43.254Z,61.70
2019-06-01T16:10:15.771Z,61.30
2019-06-01T16:12:46.828Z,60.90
2019-06-01T16:15:18.882Z,62.30
2019-06-01T16:17:48.727Z,62.00
2019-06-01T16:20:21.593Z,62.20
2019-06-01T16:22:53.930Z,61.50
2019-06-01T16:25:27.323Z,60.50
2019-06-01T16:27:58.726Z,61.20
2019-06-01T16:30:31.352Z,62.30
2019-06-01T16:33:04.891Z,62.20
2019-06-01T16:35:36.013Z,62.10
2019-06-01T16:38:10.654Z,62.50
2019-06-01T16:40:43.224Z,62.80
2019-06-01T16:43:15.261Z,64.00
2019-06-01T16:45:46.960Z,63.50
2019-06-01T16:48:17.893Z,63.80
2019-06-01T16:50:51.090Z,64.20
2019-06-01T16:53:22.147Z,63.60
2019-06-01T16:55:53.130Z,64.00
2019-06-01T16:58:26.102Z,64.20
2019-06-01T17:00:56.656Z,64.70
2019-06-01T17:03:29.316Z,65.10
2019-06-01T17:06:02.801Z,64.80
2019-06-01T17:08:34.791Z,64.70
2019-06-01T17:11:06.951Z,64.80
2019-06-01T17:13:38.239Z,65.10
2019-06-01T17:16:08.233Z,65.10
2019-06-01T17:18:39.241Z,65.20
2019-06-01T17:21:12.617Z,65.20
2019-06-01T17:23:44.158Z,65.30
2019-06-01T17:26:16.542Z,65.60
2019-06-01T17:28:49.730Z,65.50
2019-06-01T17:31:22.512Z,65.70
2019-06-01T17:33:54.948Z,66.20
2019-06-01T17:36:28.229Z,67.20
2019-06-01T17:39:01.913Z,66.60
2019-06-01T17:41:33.426Z,66.80
2019-06-01T17:44:04.764Z,66.90
2019-06-01T17:46:52.298Z,67.50
2019-06-01T17:49:10.745Z,67.30
2019-06-01T17:51:45.653Z,67.50
2019-06-01T17:54:18.192Z,67.70
2019-06-01T17:56:50.915Z,67.80
2019-06-01T17:59:23.496Z,68.00
2019-06-01T18:01:55.285Z,68.10
2019-06-01T18:04:25.327Z,68.10
2019-06-01T18:06:57.115Z,68.30
2019-06-01T18:09:27.108Z,68.50
2019-06-01T18:11:57.051Z,69.10
2019-06-01T18:14:29.588Z,69.00
2019-06-01T18:17:02.087Z,69.10
2019-06-01T18:19:34.903Z,69.60
2019-06-01T18:22:06.727Z,69.50
2019-06-01T18:24:40.611Z,69.70
2019-06-01T18:27:10.780Z,70.20
2019-06-01T18:29:48.311Z,71.50
2019-06-01T18:32:15.064Z,72.20
2019-06-01T18:34:48.100Z,72.60
2019-06-01T18:37:20.395Z,73.40
2019-06-01T18:39:52.806Z,74.00
2019-06-01T18:42:26.892Z,74.40
2019-06-01T18:44:58.090Z,74.60
2019-06-01T18:47:32.660Z,74.80
2019-06-01T18:50:04.033Z,75.00
2019-06-01T18:52:36.653Z,75.10
2019-06-01T18:55:10.622Z,75.50
2019-06-01T18:57:44.030Z,75.20
2019-06-01T19:00:17.127Z,75.20
2019-06-01T19:02:49.983Z,75.60
2019-06-01T19:05:25.298Z,75.50
2019-06-01T19:07:56.699Z,75.60
2019-06-01T19:10:26.629Z,76.10
2019-06-01T19:12:56.790Z,76.30
2019-06-01T19:15:29.091Z,76.50
2019-06-01T19:18:01.985Z,77.10
2019-06-01T19:20:33.412Z,77.00
2019-06-01T19:23:06.517Z,77.10
2019-06-01T19:25:38.892Z,77.50
2019-06-01T19:28:10.998Z,77.60
2019-06-01T19:30:46.199Z,77.60
2019-06-01T19:33:20.772Z,77.90
2019-06-01T19:35:52.587Z,78.30
2019-06-01T19:38:24.766Z,78.70
2019-06-01T19:40:54.856Z,78.80
2019-06-01T19:43:26.604Z,79.10
2019-06-01T19:45:56.667Z,79.10
2019-06-01T19:48:28.176Z,79.50
2019-06-01T19:50:58.938Z,79.80
2019-06-01T19:53:29.747Z,79.60
2019-06-01T19:56:04.009Z,79.80
2019-06-01T19:58:35.341Z,79.80
2019-06-01T20:01:10.021Z,80.10
2019-06-01T20:03:41.106Z,80.20
2019-06-01T20:06:12.837Z,80.40
2019-06-01T20:08:45.411Z,80.60
2019-06-01T20:11:22.079Z,80.90
2019-06-01T20:13:53.619Z,80.90
2019-06-01T20:16:24.618Z,81.00
2019-06-01T20:18:58.056Z,81.30
2019-06-01T20:21:31.838Z,81.30
2019-06-01T20:24:01.408Z,81.60
2019-06-01T20:26:41.987Z,81.50
2019-06-01T20:29:08.703Z,81.70
2019-06-01T20:31:39.996Z,81.80
2019-06-01T20:34:14.300Z,81.90
2019-06-01T20:36:44.597Z,81.80
2019-06-01T20:39:18.235Z,82.00
2019-06-01T20:41:48.197Z,82.00
2019-06-01T20:44:19.267Z,82.20
2019-06-01T20:46:51.901Z,82.30
2019-06-01T20:49:22.731Z,82.60
2019-06-01T20:51:55.233Z,82.80
2019-06-01T20:54:26.527Z,83.00
2019-06-01T20:56:59.912Z,83.00
2019-06-01T20:59:30.812Z,83.10
2019-06-01T21:02:03.789Z,83.10
2019-06-01T21:04:35.243Z,83.00
2019-06-01T21:07:05.115Z,83.20
2019-06-01T21:09:35.979Z,83.30
2019-06-01T21:12:06.569Z,83.60
2019-06-01T21:14:39.124Z,83.70
2019-06-01T21:17:11.931Z,83.80
2019-06-01T21:19:44.383Z,83.80
2019-06-01T21:22:14.570Z,84.10
2019-06-01T21:24:48.779Z,84.20
2019-06-01T21:27:20.758Z,84.30
2019-06-01T21:29:53.122Z,84.10
2019-06-01T21:32:25.670Z,84.10
2019-06-01T21:34:56.832Z,84.00
2019-06-01T21:37:26.747Z,84.00
2019-06-01T21:39:57.757Z,84.10
2019-06-01T21:42:30.712Z,84.10
2019-06-01T21:45:00.485Z,84.20
2019-06-01T21:47:30.565Z,84.50
2019-06-01T21:50:01.572Z,84.40
2019-06-01T21:52:35.025Z,84.40
2019-06-01T21:55:10.819Z,84.30
2019-06-01T21:57:41.892Z,84.60
2019-06-01T22:00:16.423Z,84.60
2019-06-01T22:02:47.375Z,84.60
2019-06-01T22:05:18.716Z,84.50
2019-06-01T22:07:52.492Z,84.50
2019-06-01T22:10:23.237Z,84.50
2019-06-01T22:12:58.561Z,84.80
2019-06-01T22:15:29.459Z,84.80
2019-06-01T22:17:59.527Z,85.00
2019-06-01T22:20:30.737Z,85.20
2019-06-01T22:23:01.967Z,85.30
2019-06-01T22:25:34.671Z,85.30
2019-06-01T22:28:04.468Z,85.30
2019-06-01T22:30:35.119Z,85.30
2019-06-01T22:33:06.691Z,85.30
2019-06-01T22:35:39.124Z,85.60
2019-06-01T22:38:10.235Z,85.70
2019-06-01T22:40:41.333Z,86.10
2019-06-01T22:43:12.492Z,85.40
2019-06-01T22:45:45.113Z,85.80
2019-06-01T22:48:20.369Z,85.90
2019-06-01T22:50:51.620Z,86.00
2019-06-01T22:53:24.086Z,86.00
2019-06-01T22:55:55.412Z,85.90
2019-06-01T22:58:27.392Z,86.10
2019-06-01T23:00:59.060Z,86.30
2019-06-01T23:03:30.394Z,86.40
2019-06-01T23:06:01.320Z,86.60
2019-06-01T23:08:32.250Z,86.70
2019-06-01T23:11:23.199Z,86.80
2019-06-01T23:13:54.699Z,86.70
2019-06-01T23:16:27.644Z,86.50
2019-06-01T23:18:58.225Z,86.10
2019-06-01T23:21:29.981Z,86.30
2019-06-01T23:24:02.256Z,86.50
2019-06-01T23:26:33.506Z,86.20
2019-06-01T23:29:05.799Z,86.20
2019-06-01T23:31:37.251Z,86.10
2019-06-01T23:34:08.469Z,86.00
2019-06-01T23:36:39.845Z,86.00
2019-06-01T23:39:09.096Z,86.00
2019-06-01T23:41:40.443Z,85.90
2019-06-01T23:44:12.815Z,85.90
2019-06-01T23:46:44.345Z,85.90
2019-06-01T23:49:15.328Z,86.10
2019-06-01T23:51:46.177Z,86.00
2019-06-01T23:54:17.078Z,85.90
2019-06-01T23:56:51.243Z,86.00
2019-06-01T23:59:27.486Z,86.20
